ZSSS/SHA METAR and TAF weather

Enter ICAO airport designator
Station Type Date Time Source
ZSSS METAR 2020/04/06 16:00 UTC NOAA

ZSSS 061600Z 17001MPS CAVOK 10/05 Q1020 NOSIG


Station Type Date Time Source
ZSSS Decoded METAR 2020/04/06 16:00 UTC NOAA

Shanghai / Hongqiao, China (ZSSS) 31-10N 121-26E 3M
Apr 06, 2020 - 12:00 PM EDT / 2020.04.06 1600 UTC
Wind: from the S (170 degrees) at 2 MPH (2 KT):0
Visibility: greater than 7 mile(s):0
Temperature: 50 F (10 C)
Dew Point: 41 F (5 C)
Relative Humidity: 71%
Pressure (altimeter): 30.12 in. Hg (1020 hPa)
ob: ZSSS 061600Z 17001MPS CAVOK 10/05 Q1020 NOSIG
cycle: 16

Station Type Date Time Source
ZSSS TAF 2020/04/06 18:03 UTC NOAA

TAF TAF ZSSS 061510Z 0618/0718 10003MPS 5000 BR NSC TX19/0706Z TN08/0621Z
BECMG 0619/0620 06004MPS
BECMG 0710/0711 18004MPS

Example: see airport list